Time;durP1;ratioP1;P1;durP2;ratioP2;P2;SDS_P1;SDS_P2;PMS_P1;PMS_P2;Temp;Humidity;BMP_temperature;BMP_pressure;BME280_temperature;BME280_humidity;BME280_pressure;Samples;Min_cycle;Max_cycle;Signal;HPM_P1;HPM_P2
2022/12/22 03:26:42;;;;;;;14.67;6.17;;;;;;;6.61;100.00;100108.38;5056877;28;20448;-71
2022/12/22 03:29:08;;;;;;;12.10;5.47;;;;;;;6.66;100.00;100105.63;5071956;28;20958;-71
2022/12/22 03:31:35;;;;;;;12.60;7.20;;;;;;;6.66;100.00;100111.81;5072100;28;20814;-70
2022/12/22 03:34:03;;;;;;;13.23;6.10;;;;;;;6.61;100.00;100103.00;5073211;28;20460;-70
2022/12/22 03:36:29;;;;;;;17.47;6.37;;;;;;;6.63;100.00;100101.59;5072278;28;20532;-70
2022/12/22 03:38:56;;;;;;;13.57;5.50;;;;;;;6.62;100.00;100097.31;5072451;28;20955;-71
2022/12/22 03:46:50;;;;;;;11.50;5.00;;;;;;;6.77;100.00;100094.47;5072899;28;20536;-71
2022/12/22 03:49:18;;;;;;;13.00;5.53;;;;;;;6.82;100.00;100089.03;5071951;28;20453;-71
2022/12/22 03:51:47;;;;;;;16.60;6.63;;;;;;;6.86;100.00;100083.03;5072923;28;20460;-69
2022/12/22 03:54:15;;;;;;;12.07;6.40;;;;;;;6.89;100.00;100075.19;5071999;28;20553;-70
2022/12/22 03:56:42;;;;;;;12.50;5.80;;;;;;;6.92;100.00;100071.94;5072576;28;20441;-70
2022/12/22 03:59:09;;;;;;;23.47;6.20;;;;;;;6.96;100.00;100061.38;5071558;28;20461;-70
2022/12/22 04:01:39;;;;;;;10.63;5.10;;;;;;;6.96;100.00;100058.69;5072762;28;20485;-70
2022/12/22 04:04:05;;;;;;;12.50;5.33;;;;;;;6.88;100.00;100056.66;5071039;28;20461;-70
2022/12/22 04:06:33;;;;;;;13.03;6.10;;;;;;;6.91;100.00;100048.00;5072859;28;20541;-71
2022/12/22 04:09:00;;;;;;;17.40;6.20;;;;;;;6.91;100.00;100048.81;5073444;28;20488;-71
2022/12/22 04:14:11;;;;;;;12.83;5.47;;;;;;;6.98;100.00;100049.22;5075491;28;20471;-71
2022/12/22 04:16:37;;;;;;;14.47;6.03;;;;;;;7.01;100.00;100047.84;5076627;28;20444;-71
2022/12/22 04:19:05;;;;;;;11.83;5.37;;;;;;;7.04;100.00;100052.66;5075525;28;20465;-71
2022/12/22 04:21:33;;;;;;;11.80;5.63;;;;;;;7.02;100.00;100047.56;5075763;28;20490;-71
2022/12/22 04:24:00;;;;;;;10.90;5.57;;;;;;;7.08;100.00;100050.97;5076186;28;20443;-71
2022/12/22 04:26:27;;;;;;;21.23;6.30;;;;;;;7.12;100.00;100051.19;5075549;28;20465;-69
2022/12/22 04:28:54;;;;;;;12.83;5.90;;;;;;;7.15;100.00;100053.31;5075282;28;20464;-71
2022/12/22 04:31:21;;;;;;;14.80;5.60;;;;;;;7.04;100.00;100047.28;5075991;28;20452;-70
2022/12/22 04:33:48;;;;;;;11.20;5.20;;;;;;;7.01;100.00;100042.47;5075447;28;20465;-71
2022/12/22 04:36:15;;;;;;;14.07;5.93;;;;;;;7.03;100.00;100040.28;5075932;28;20445;-71
2022/12/22 04:38:43;;;;;;;11.53;5.07;;;;;;;7.03;100.00;100034.88;5074779;28;20492;-68
2022/12/22 04:41:10;;;;;;;13.20;5.77;;;;;;;7.04;100.00;100034.63;5075718;28;20448;-69
2022/12/22 04:43:37;;;;;;;15.30;5.90;;;;;;;7.05;100.00;100030.81;5075214;28;20565;-68
2022/12/22 04:46:04;;;;;;;12.90;4.50;;;;;;;7.12;100.00;100021.56;5075947;28;20649;-71
2022/12/22 04:48:32;;;;;;;11.70;5.37;;;;;;;7.11;100.00;100020.78;5075022;28;20465;-71
2022/12/22 04:51:00;;;;;;;11.40;5.07;;;;;;;7.04;100.00;100015.78;5074662;28;20988;-73
2022/12/22 04:53:28;;;;;;;11.83;5.67;;;;;;;6.97;100.00;100011.84;5074549;28;20473;-72
2022/12/22 04:55:59;;;;;;;11.40;5.43;;;;;;;7.05;100.00;100013.88;5075864;28;20441;-69
2022/12/22 04:58:25;;;;;;;12.10;4.90;;;;;;;7.12;100.00;100010.81;5073736;28;20561;-69
2022/12/22 05:00:52;;;;;;;9.27;4.70;;;;;;;7.13;100.00;100005.16;5075694;28;20481;-70
2022/12/22 05:03:19;;;;;;;14.67;5.43;;;;;;;7.06;100.00;100002.00;5073809;28;20567;-70
2022/12/22 05:05:45;;;;;;;11.53;4.80;;;;;;;7.04;100.00;100001.50;5075760;28;20437;-70
2022/12/22 05:08:12;;;;;;;14.93;7.20;;;;;;;7.00;100.00;99993.22;5074666;28;20549;-70
2022/12/22 05:10:40;;;;;;;11.77;4.97;;;;;;;7.00;100.00;99997.78;5074498;28;20456;-68
2022/12/22 05:13:08;;;;;;;16.87;5.80;;;;;;;7.01;100.00;99991.31;5075499;28;20458;-68
2022/12/22 05:15:35;;;;;;;12.63;6.40;;;;;;;7.08;100.00;99983.66;5074492;28;20548;-68
2022/12/22 05:18:03;;;;;;;12.60;5.73;;;;;;;7.11;100.00;99983.06;5075495;28;20441;-70
2022/12/22 05:20:30;;;;;;;11.90;4.83;;;;;;;7.15;100.00;99981.41;5074332;28;20457;-68
2022/12/22 05:22:57;;;;;;;16.53;6.57;;;;;;;7.14;100.00;99985.19;5074838;28;21002;-70
2022/12/22 05:25:24;;;;;;;13.07;6.63;;;;;;;7.13;100.00;99975.53;5074515;28;20461;-70
2022/12/22 05:27:50;;;;;;;17.20;7.30;;;;;;;7.16;100.00;99974.91;5075041;28;20484;-70
2022/12/22 05:30:19;;;;;;;18.07;7.83;;;;;;;7.23;100.00;99963.78;5074149;28;20457;-70
2022/12/22 05:32:46;;;;;;;14.97;6.23;;;;;;;7.25;100.00;99970.47;5075166;28;20454;-70
2022/12/22 05:35:13;;;;;;;13.63;5.20;;;;;;;7.30;100.00;99965.00;5074382;28;20553;-70
2022/12/22 05:37:40;;;;;;;12.00;5.60;;;;;;;7.30;100.00;99956.94;5075166;28;20441;-71
2022/12/22 05:40:08;;;;;;;14.60;7.27;;;;;;;7.28;100.00;99956.41;5074051;28;20465;-70
2022/12/22 05:42:38;;;;;;;16.20;6.27;;;;;;;7.24;100.00;99949.22;5074559;28;20491;-70
2022/12/22 05:45:08;;;;;;;14.63;6.27;;;;;;;7.21;100.00;99958.66;5074200;28;20530;-70
2022/12/22 05:47:36;;;;;;;15.77;7.30;;;;;;;7.18;100.00;99948.50;5074630;28;20946;-70
2022/12/22 05:50:03;;;;;;;12.53;5.30;;;;;;;7.13;100.00;99945.06;5073844;28;20493;-70
2022/12/22 05:52:30;;;;;;;14.53;6.50;;;;;;;7.15;100.00;99938.31;5074811;28;20463;-70
2022/12/22 05:54:56;;;;;;;11.83;5.60;;;;;;;7.16;100.00;99936.41;5073493;28;20540;-68
2022/12/22 05:57:23;;;;;;;13.80;5.30;;;;;;;7.20;100.00;99937.44;5074691;28;20527;-68
2022/12/22 05:59:50;;;;;;;14.20;6.63;;;;;;;7.20;100.00;99938.22;5073142;28;20832;-68
2022/12/22 06:02:16;;;;;;;14.93;7.00;;;;;;;7.21;100.00;99931.72;5071380;28;20579;-68
2022/12/22 06:04:44;;;;;;;13.70;6.67;;;;;;;7.22;100.00;99935.25;5073607;28;20547;-68
2022/12/22 06:07:11;;;;;;;27.73;6.37;;;;;;;7.24;100.00;99931.16;5074040;28;20892;-69
2022/12/22 06:09:37;;;;;;;14.97;6.23;;;;;;;7.27;100.00;99927.09;5073361;28;20486;-68
2022/12/22 06:12:05;;;;;;;12.93;5.13;;;;;;;7.25;100.00;99924.66;5074045;28;21259;-69
2022/12/22 06:14:32;;;;;;;16.63;6.80;;;;;;;7.27;100.00;99927.88;5071450;28;20465;-68
2022/12/22 06:16:58;;;;;;;12.57;5.80;;;;;;;7.29;100.00;99914.91;5074393;28;20442;-71
2022/12/22 06:19:25;;;;;;;15.57;6.37;;;;;;;7.30;100.00;99904.94;5073420;28;20457;-71
2022/12/22 06:21:53;;;;;;;13.47;6.20;;;;;;;7.29;100.00;99901.44;5073870;28;21065;-71
2022/12/22 06:24:19;;;;;;;15.50;6.67;;;;;;;7.29;100.00;99900.63;5072936;28;20464;-71
2022/12/22 06:26:46;;;;;;;16.97;6.17;;;;;;;7.31;100.00;99901.16;5074116;28;20934;-70
2022/12/22 06:29:13;;;;;;;21.43;8.07;;;;;;;7.34;100.00;99901.34;5072745;28;20512;-70
2022/12/22 06:31:39;;;;;;;13.73;6.80;;;;;;;7.40;100.00;99895.88;5073444;28;20468;-70
2022/12/22 06:34:06;;;;;;;12.40;6.20;;;;;;;7.37;100.00;99891.88;5072705;28;20809;-70
2022/12/22 06:36:33;;;;;;;16.20;6.50;;;;;;;7.42;100.00;99888.28;5073635;28;20449;-70
2022/12/22 06:39:01;;;;;;;14.73;6.07;;;;;;;7.43;100.00;99887.19;5073049;28;20445;-70
2022/12/22 06:44:11;;;;;;;11.77;5.33;;;;;;;7.41;100.00;99884.81;5072885;28;20444;-70
2022/12/22 06:46:38;;;;;;;16.17;7.20;;;;;;;7.44;100.00;99892.31;5073768;28;20788;-71
2022/12/22 06:49:05;;;;;;;15.77;6.30;;;;;;;7.50;100.00;99899.19;5071640;28;20489;-70
2022/12/22 06:51:31;;;;;;;16.80;7.30;;;;;;;7.56;100.00;99889.91;5073351;28;20441;-70
2022/12/22 06:53:58;;;;;;;16.60;7.67;;;;;;;7.62;100.00;99887.13;5069091;28;20951;-70
2022/12/22 06:56:26;;;;;;;16.50;7.83;;;;;;;7.61;100.00;99880.13;5073476;28;20453;-70
2022/12/22 06:58:52;;;;;;;14.80;7.07;;;;;;;7.57;100.00;99888.81;5072516;28;20519;-70
2022/12/22 07:01:19;;;;;;;13.07;6.00;;;;;;;7.53;100.00;99897.81;5073776;28;20449;-70
2022/12/22 07:03:45;;;;;;;13.10;6.20;;;;;;;7.61;100.00;99897.09;5071380;28;20512;-70
2022/12/22 07:06:12;;;;;;;15.43;8.00;;;;;;;7.67;100.00;99879.75;5073570;28;20437;-70
2022/12/22 07:08:38;;;;;;;15.33;7.00;;;;;;;7.65;100.00;99884.63;5072162;28;20828;-70
2022/12/22 07:11:05;;;;;;;11.73;6.23;;;;;;;7.55;100.00;99880.22;5073132;28;20942;-70
2022/12/22 07:13:35;;;;;;;15.10;7.37;;;;;;;7.60;100.00;99873.94;5070979;28;20568;-69
2022/12/22 07:16:03;;;;;;;13.03;6.40;;;;;;;7.64;100.00;99861.47;5063651;28;20536;-70
2022/12/22 07:18:31;;;;;;;22.63;7.30;;;;;;;7.56;100.00;99867.56;5071640;28;20475;-70
2022/12/22 07:20:58;;;;;;;16.70;6.87;;;;;;;7.65;100.00;99857.66;5072600;28;20447;-70
2022/12/22 07:23:25;;;;;;;15.57;6.40;;;;;;;7.72;100.00;99870.75;5071985;28;20485;-70
2022/12/22 07:25:52;;;;;;;15.67;6.27;;;;;;;7.72;100.00;99868.88;5073564;28;20437;-70
2022/12/22 07:28:18;;;;;;;19.10;6.60;;;;;;;7.69;100.00;99864.06;5072354;28;20463;-70
2022/12/22 07:30:47;;;;;;;15.17;6.93;;;;;;;7.63;100.00;99859.09;5072826;28;20529;-70
2022/12/22 07:33:13;;;;;;;13.93;6.23;;;;;;;7.61;100.00;99867.44;5071199;28;20491;-69
2022/12/22 07:35:40;;;;;;;16.00;6.83;;;;;;;7.65;100.00;99856.88;5073204;28;20476;-70
2022/12/22 07:38:06;;;;;;;18.00;6.70;;;;;;;7.69;100.00;99858.66;5072221;28;20442;-69
2022/12/22 07:40:33;;;;;;;13.73;6.30;;;;;;;7.75;100.00;99859.38;5073066;28;20441;-69
2022/12/22 07:42:59;;;;;;;19.00;7.20;;;;;;;7.76;100.00;99859.09;5072052;28;20553;-69
2022/12/22 07:45:27;;;;;;;16.50;7.00;;;;;;;7.77;100.00;99860.66;5057243;28;20504;-70
2022/12/22 07:48:00;;;;;;;16.47;7.30;;;;;;;7.73;100.00;99843.50;5057158;28;20434;-70
2022/12/22 07:50:26;;;;;;;14.47;7.10;;;;;;;7.69;100.00;99847.09;5073684;28;20452;-72
2022/12/22 07:52:54;;;;;;;13.50;6.70;;;;;;;7.63;100.00;99838.31;5074254;28;20910;-71
2022/12/22 07:55:21;;;;;;;14.30;6.60;;;;;;;7.62;100.00;99844.81;5071337;28;20449;-68
2022/12/22 07:57:47;;;;;;;14.30;6.47;;;;;;;7.68;100.00;99838.22;5075734;28;20444;-69
2022/12/22 08:00:16;;;;;;;14.77;6.67;;;;;;;7.69;100.00;99837.09;5074893;28;20961;-71
2022/12/22 08:02:44;;;;;;;14.43;6.20;;;;;;;7.76;100.00;99842.91;5073904;28;20488;-72
2022/12/22 08:05:12;;;;;;;14.57;7.07;;;;;;;7.80;100.00;99835.81;5075026;28;20465;-71
2022/12/22 08:07:39;;;;;;;13.73;7.13;;;;;;;7.73;100.00;99832.72;5077120;28;20449;-69
2022/12/22 08:10:06;;;;;;;13.87;6.97;;;;;;;7.80;100.00;99832.31;5076206;28;20465;-71
2022/12/22 08:12:33;;;;;;;17.80;7.00;;;;;;;7.80;100.00;99824.25;5075533;28;20481;-68
2022/12/22 08:15:00;;;;;;;12.60;6.50;;;;;;;7.85;100.00;99829.53;5069440;28;20460;-68
2022/12/22 08:17:27;;;;;;;18.73;7.27;;;;;;;7.84;100.00;99820.63;5076239;28;20453;-69
2022/12/22 08:19:53;;;;;;;19.00;6.93;;;;;;;7.86;100.00;99819.53;5075423;28;20983;-70
2022/12/22 08:22:24;;;;;;;17.60;6.77;;;;;;;7.91;100.00;99822.91;5076516;28;20842;-72
2022/12/22 08:24:51;;;;;;;17.00;7.73;;;;;;;7.97;100.00;99821.72;5075561;28;20446;-73
2022/12/22 08:27:20;;;;;;;17.93;6.83;;;;;;;7.95;100.00;99815.03;5075353;28;20548;-69
2022/12/22 08:29:51;;;;;;;16.23;6.80;;;;;;;8.01;100.00;99811.94;5075130;28;20463;-70
2022/12/22 08:32:18;;;;;;;13.23;6.30;;;;;;;8.00;100.00;99810.31;5073387;28;20517;-70
2022/12/22 08:34:44;;;;;;;18.67;8.70;;;;;;;8.04;100.00;99805.13;5075146;28;20451;-71
2022/12/22 08:37:16;;;;;;;17.73;7.70;;;;;;;8.07;100.00;99809.91;5075256;28;20493;-71
2022/12/22 08:39:48;;;;;;;15.23;6.63;;;;;;;8.05;100.00;99806.72;5069781;28;20962;-69
2022/12/22 08:42:17;;;;;;;11.73;5.87;;;;;;;8.12;100.00;99795.50;5075996;28;20471;-70
2022/12/22 08:44:44;;;;;;;14.10;5.80;;;;;;;8.16;100.00;99802.69;5075084;28;20545;-73
2022/12/22 08:47:11;;;;;;;10.37;5.17;;;;;;;8.12;100.00;99799.00;5075270;28;20457;-71
2022/12/22 08:49:39;;;;;;;14.03;7.10;;;;;;;8.18;100.00;99800.47;5074935;28;20465;-68
2022/12/22 08:52:06;;;;;;;13.50;5.90;;;;;;;8.16;100.00;99789.22;5073969;28;20476;-69
2022/12/22 08:54:33;;;;;;;10.60;5.70;;;;;;;8.14;100.00;99787.91;5074081;28;20548;-70
2022/12/22 08:57:01;;;;;;;16.87;7.20;;;;;;;8.19;100.00;99785.91;5075967;28;20488;-70
2022/12/22 08:59:27;;;;;;;13.97;6.30;;;;;;;8.19;100.00;99783.22;5072998;28;20544;-69
2022/12/22 09:01:54;;;;;;;18.13;6.27;;;;;;;8.23;100.00;99786.88;5075647;28;20468;-70
2022/12/22 09:04:23;;;;;;;15.00;5.90;;;;;;;8.21;100.00;99789.09;5072512;28;21073;-69
2022/12/22 09:06:51;;;;;;;12.47;5.50;;;;;;;8.23;100.00;99784.19;5055386;28;20481;-69
2022/12/22 09:09:18;;;;;;;12.80;5.47;;;;;;;8.30;100.00;99784.56;5059628;28;20461;-70
2022/12/22 09:11:44;;;;;;;17.03;6.97;;;;;;;8.31;100.00;99778.06;5072343;28;20461;-69
2022/12/22 09:14:13;;;;;;;11.97;6.07;;;;;;;8.26;100.00;99783.56;5073613;28;20461;-70
2022/12/22 09:16:40;;;;;;;12.30;5.77;;;;;;;8.29;100.00;99784.88;5073956;28;20855;-69
2022/12/22 09:19:07;;;;;;;13.90;5.77;;;;;;;8.32;100.00;99785.06;5075549;28;20445;-71
2022/12/22 09:21:34;;;;;;;14.30;6.50;;;;;;;8.38;100.00;99779.56;5073623;28;20459;-70
2022/12/22 09:24:03;;;;;;;10.90;5.13;;;;;;;8.38;100.00;99777.69;5073648;28;20474;-70
2022/12/22 09:26:29;;;;;;;14.70;6.40;;;;;;;8.41;100.00;99771.69;5072451;28;20496;-70
2022/12/22 09:28:56;;;;;;;11.60;5.37;;;;;;;8.43;100.00;99766.75;5074456;28;20449;-71
2022/12/22 09:31:25;;;;;;;14.93;6.33;;;;;;;8.48;100.00;99763.94;5074122;28;20540;-69
2022/12/22 09:33:52;;;;;;;14.37;5.33;;;;;;;8.51;100.00;99759.84;5074353;28;20540;-70
2022/12/22 09:36:22;;;;;;;13.70;6.20;;;;;;;8.51;100.00;99754.44;5074373;28;20437;-70
2022/12/22 09:38:49;;;;;;;12.90;5.33;;;;;;;8.51;100.00;99759.84;5060149;28;20457;-70
2022/12/22 09:41:18;;;;;;;11.03;5.90;;;;;;;8.47;100.00;99767.75;5072755;28;20453;-70
2022/12/22 09:43:45;;;;;;;12.93;5.13;;;;;;;8.53;100.00;99753.00;5074613;28;20489;-70
2022/12/22 09:46:20;;;;;;;15.30;6.57;;;;;;;8.51;100.00;99746.34;5074596;28;20457;-70
2022/12/22 09:48:49;;;;;;;11.83;5.10;;;;;;;8.54;100.00;99743.81;5074034;28;20453;-70
2022/12/22 09:51:16;;;;;;;12.37;5.73;;;;;;;8.63;100.00;99737.66;5074095;28;20456;-70
2022/12/22 09:53:43;;;;;;;15.47;6.37;;;;;;;8.66;100.00;99739.75;5074857;28;20463;-72
2022/12/22 09:56:13;;;;;;;13.37;6.00;;;;;;;8.70;100.00;99738.03;5073979;28;20532;-70
2022/12/22 09:58:41;;;;;;;11.30;5.47;;;;;;;8.74;100.00;99741.72;5073554;28;20460;-71
2022/12/22 10:01:23;;;;;;;12.33;5.70;;;;;;;8.73;100.00;99740.91;5070743;28;21035;-71
2022/12/22 10:03:59;;;;;;;13.50;5.20;;;;;;;8.72;100.00;99742.03;5069477;28;20479;-70
2022/12/22 10:06:35;;;;;;;15.73;6.57;;;;;;;8.74;100.00;99741.72;5071186;28;20453;-70
2022/12/22 10:09:04;;;;;;;11.23;5.53;;;;;;;8.65;100.00;99738.97;5072800;28;20467;-70
2022/12/22 10:11:30;;;;;;;13.50;6.00;;;;;;;8.68;100.00;99734.84;5074385;28;20437;-70
2022/12/22 10:13:57;;;;;;;15.43;6.40;;;;;;;8.70;100.00;99736.13;5074400;28;20441;-70
2022/12/22 10:16:26;;;;;;;9.57;4.60;;;;;;;8.74;100.00;99733.59;5073987;28;20473;-70
2022/12/22 10:19:00;;;;;;;11.70;5.00;;;;;;;8.66;100.00;99726.25;5074302;28;20540;-70
2022/12/22 10:21:26;;;;;;;16.17;5.90;;;;;;;8.68;100.00;99724.84;5074032;28;20446;-70
2022/12/22 10:23:53;;;;;;;17.70;6.00;;;;;;;8.72;100.00;99728.53;5072265;28;21049;-70
2022/12/22 10:26:23;;;;;;;15.50;6.47;;;;;;;8.74;100.00;99729.00;5071885;28;20495;-70
2022/12/22 10:28:53;;;;;;;10.93;5.30;;;;;;;8.73;100.00;99724.72;5072274;28;20500;-70
2022/12/22 10:31:22;;;;;;;11.80;5.63;;;;;;;8.76;100.00;99725.97;5074083;28;20428;-70
2022/12/22 10:33:51;;;;;;;23.40;5.77;;;;;;;8.76;100.00;99720.59;5073130;28;20457;-70
2022/12/22 10:36:24;;;;;;;13.80;5.33;;;;;;;8.75;100.00;99722.50;5072239;28;20465;-70
2022/12/22 10:39:10;;;;;;;10.63;5.27;;;;;;;8.75;100.00;99711.69;5073972;28;20426;-70
2022/12/22 10:41:41;;;;;;;11.53;5.23;;;;;;;8.76;100.00;99712.47;5073837;28;20487;-70
2022/12/22 10:44:11;;;;;;;13.70;5.10;;;;;;;8.79;100.00;99712.66;5072361;28;20557;-71
2022/12/22 10:46:41;;;;;;;12.10;4.77;;;;;;;8.80;100.00;99703.44;5055637;28;20523;-70
2022/12/22 10:49:15;;;;;;;12.93;5.83;;;;;;;8.79;100.00;99711.88;5072577;28;20469;-70
2022/12/22 10:51:44;;;;;;;14.70;7.60;;;;;;;8.75;100.00;99706.28;5073137;28;20476;-70
2022/12/22 10:54:24;;;;;;;12.77;6.20;;;;;;;8.73;100.00;99697.72;5059131;28;20492;-70
2022/12/22 10:56:59;;;;;;;16.70;6.50;;;;;;;8.76;100.00;99705.16;5073393;28;20891;-70
2022/12/22 10:59:26;;;;;;;11.37;5.17;;;;;;;8.75;100.00;99703.59;5073624;28;20435;-70
2022/12/22 11:01:53;;;;;;;13.23;5.70;;;;;;;8.79;100.00;99701.06;5073464;28;20828;-70
2022/12/22 11:04:23;;;;;;;11.93;5.60;;;;;;;8.83;100.00;99700.13;5071746;28;20496;-70
2022/12/22 11:06:53;;;;;;;20.80;7.70;;;;;;;8.88;100.00;99701.09;5071634;28;20448;-70
2022/12/22 11:09:20;;;;;;;16.70;7.20;;;;;;;8.91;100.00;99689.69;5072126;28;20992;-70
2022/12/22 11:11:51;;;;;;;14.43;6.20;;;;;;;8.93;100.00;99687.47;5072964;28;20468;-70
2022/12/22 11:14:28;;;;;;;15.43;6.80;;;;;;;8.92;100.00;99686.66;5073070;28;20418;-70
2022/12/22 11:17:01;;;;;;;12.10;4.80;;;;;;;8.98;100.00;99681.91;5072971;28;20887;-70
2022/12/22 11:19:49;;;;;;;17.00;5.57;;;;;;;9.01;100.00;99670.50;5073231;28;20437;-70
2022/12/22 11:22:28;;;;;;;12.60;6.00;;;;;;;9.08;100.00;99676.25;5072849;28;20485;-68
2022/12/22 11:25:14;;;;;;;14.37;6.33;;;;;;;9.15;100.00;99671.16;5072951;28;20989;-70
2022/12/22 11:27:49;;;;;;;14.50;6.00;;;;;;;9.27;100.00;99678.69;5072952;28;20517;-70
2022/12/22 11:30:19;;;;;;;23.33;9.13;;;;;;;9.36;100.00;99676.78;5069865;28;20544;-70
2022/12/22 11:33:02;;;;;;;29.40;9.63;;;;;;;9.43;100.00;99670.91;5071775;28;20504;-71
2022/12/22 11:35:41;;;;;;;39.10;12.20;;;;;;;9.42;100.00;99674.72;5073162;28;20428;-70
2022/12/22 11:38:20;;;;;;;28.77;9.50;;;;;;;9.43;100.00;99673.59;5072935;28;20464;-70
2022/12/22 11:40:51;;;;;;;13.77;6.37;;;;;;;9.43;100.00;99674.44;5072047;28;20432;-71
2022/12/22 11:43:23;;;;;;;27.13;8.33;;;;;;;9.42;100.00;99672.03;5072630;28;20853;-71
2022/12/22 11:46:14;;;;;;;28.57;8.20;;;;;;;9.41;100.00;99663.13;5072043;28;20436;-72
2022/12/22 11:49:03;;;;;;;27.30;7.90;;;;;;;9.41;100.00;99662.31;5059282;28;20465;-71
2022/12/22 11:51:48;;;;;;;16.80;6.83;;;;;;;9.42;100.00;99653.91;5072734;28;20463;-71
2022/12/22 11:54:42;;;;;;;16.90;6.77;;;;;;;9.42;100.00;99658.50;5071738;28;20907;-70
2022/12/22 11:57:22;;;;;;;15.03;6.10;;;;;;;9.44;100.00;99657.09;5068130;28;20450;-70
2022/12/22 11:59:59;;;;;;;18.20;7.00;;;;;;;9.51;100.00;99654.69;5071918;28;20460;-70
2022/12/22 12:02:52;;;;;;;23.63;7.97;;;;;;;9.51;100.00;99645.78;5052369;28;20983;-70
2022/12/22 12:05:37;;;;;;;14.77;6.10;;;;;;;9.54;100.00;99656.00;5025190;28;20623;-69
2022/12/22 12:08:14;;;;;;;27.93;10.13;;;;;;;9.54;100.00;99645.19;5071614;28;20461;-69
2022/12/22 12:10:47;;;;;;;24.97;8.13;;;;;;;9.55;100.00;99638.66;5068494;28;20548;-70
2022/12/22 12:13:25;;;;;;;16.13;7.20;;;;;;;9.57;100.00;99642.63;5072491;28;20540;-70
2022/12/22 12:15:58;;;;;;;22.90;8.17;;;;;;;9.54;100.00;99643.25;5071073;28;20457;-70
2022/12/22 12:18:46;;;;;;;15.60;7.70;;;;;;;9.53;100.00;99646.28;5071640;28;20977;-70
2022/12/22 12:21:24;;;;;;;20.90;7.77;;;;;;;9.54;100.00;99650.59;5071654;28;20485;-70
2022/12/22 12:24:10;;;;;;;14.37;5.50;;;;;;;9.47;100.00;99645.63;5070732;28;20473;-70
2022/12/22 12:26:44;;;;;;;12.00;5.30;;;;;;;9.49;100.00;99650.75;5071377;28;20488;-70
2022/12/22 12:29:16;;;;;;;12.03;4.60;;;;;;;9.50;100.00;99652.31;5072693;28;20434;-70
2022/12/22 12:31:48;;;;;;;10.07;5.03;;;;;;;9.50;100.00;99661.22;5074129;28;20503;-70
2022/12/22 12:34:18;;;;;;;9.87;4.73;;;;;;;9.49;100.00;99658.84;5075302;28;20489;-72
2022/12/22 12:36:50;;;;;;;9.27;3.57;;;;;;;9.50;100.00;99661.22;5074291;28;20532;-70
2022/12/22 12:39:25;;;;;;;9.37;4.10;;;;;;;9.52;100.00;99652.81;5073220;28;20544;-70
2022/12/22 12:41:59;;;;;;;11.70;5.37;;;;;;;9.52;100.00;99652.81;5073731;28;20504;-70
2022/12/22 12:44:28;;;;;;;9.60;4.40;;;;;;;9.51;100.00;99643.88;5074748;28;20996;-70
2022/12/22 12:47:07;;;;;;;9.87;4.77;;;;;;;9.50;100.00;99647.72;5074443;28;20488;-70
2022/12/22 12:49:56;;;;;;;11.23;4.03;;;;;;;9.52;100.00;99642.78;5075246;28;20465;-70
2022/12/22 12:53:14;;;;;;;8.90;4.27;;;;;;;9.54;100.00;99637.84;5073893;28;20485;-70
2022/12/22 12:56:05;;;;;;;12.47;4.97;;;;;;;9.53;100.00;99641.69;5058499;28;20453;-70
2022/12/22 12:58:54;;;;;;;8.53;3.73;;;;;;;9.52;100.00;99640.09;5076080;28;20429;-70
2022/12/22 13:01:55;;;;;;;9.23;4.30;;;;;;;9.52;100.00;99648.19;5074875;28;20481;-70
2022/12/22 13:05:14;;;;;;;9.37;4.37;;;;;;;9.49;100.00;99653.44;5074697;28;20460;-72
2022/12/22 13:08:10;;;;;;;9.40;3.93;;;;;;;9.46;100.00;99654.84;5074786;28;20491;-70
2022/12/22 13:10:40;;;;;;;10.87;4.10;;;;;;;9.45;100.00;99663.28;5074993;28;20437;-71
2022/12/22 13:13:10;;;;;;;11.60;4.50;;;;;;;9.41;100.00;99663.13;5073942;28;20561;-69
2022/12/22 13:15:40;;;;;;;10.20;4.60;;;;;;;9.42;100.00;99670.13;5073837;28;20453;-70
2022/12/22 13:18:37;;;;;;;11.07;4.20;;;;;;;9.43;100.00;99662.78;5073515;28;20462;-70
2022/12/22 13:21:13;;;;;;;15.40;4.70;;;;;;;9.42;100.00;99674.72;5072860;28;20484;-71
2022/12/22 13:23:42;;;;;;;9.47;4.20;;;;;;;9.42;100.00;99677.44;5072156;28;20488;-70
2022/12/22 13:26:12;;;;;;;12.13;4.20;;;;;;;9.41;100.00;99668.53;5062138;28;20616;-70
2022/12/22 13:28:41;;;;;;;11.20;4.50;;;;;;;9.32;100.00;99673.13;5064242;28;20461;-67
2022/12/22 13:31:17;;;;;;;8.30;3.93;;;;;;;9.34;100.00;99679.81;5074633;28;20595;-70
2022/12/22 13:33:44;;;;;;;8.23;3.70;;;;;;;9.33;100.00;99683.59;5072451;28;20481;-68
2022/12/22 13:36:18;;;;;;;9.63;4.40;;;;;;;9.32;100.00;99689.34;5073464;28;20460;-69
2022/12/22 13:38:45;;;;;;;8.70;3.40;;;;;;;9.29;100.00;99693.44;5073471;28;20460;-68
2022/12/22 13:41:16;;;;;;;9.77;3.90;;;;;;;9.34;100.00;99696.03;5071919;28;20608;-69
2022/12/22 13:43:44;;;;;;;9.83;3.77;;;;;;;9.33;100.00;99699.81;5074429;28;20457;-70
2022/12/22 13:46:12;;;;;;;10.70;3.93;;;;;;;9.34;100.00;99701.44;5072705;28;20507;-69
2022/12/22 13:48:42;;;;;;;8.70;3.70;;;;;;;9.35;100.00;99711.13;5072716;28;20827;-69
2022/12/22 13:51:17;;;;;;;14.17;4.50;;;;;;;9.30;100.00;99703.16;5073279;28;20556;-71
2022/12/22 13:53:49;;;;;;;11.87;4.90;;;;;;;9.32;100.00;99709.03;5074240;28;20534;-68
2022/12/22 13:56:17;;;;;;;11.20;4.13;;;;;;;9.36;100.00;99709.22;5073267;28;20454;-69
2022/12/22 13:58:46;;;;;;;9.30;3.90;;;;;;;9.37;100.00;99716.22;5072129;28;20488;-71
2022/12/22 14:01:17;;;;;;;10.93;4.83;;;;;;;9.38;100.00;99717.78;5072657;28;20487;-70
2022/12/22 14:03:49;;;;;;;9.67;4.07;;;;;;;9.41;100.00;99717.19;5072284;28;20552;-70
2022/12/22 14:06:20;;;;;;;11.90;4.47;;;;;;;9.41;100.00;99721.78;5072888;28;20485;-70
2022/12/22 14:08:48;;;;;;;11.90;5.10;;;;;;;9.43;100.00;99714.16;5072852;28;20464;-72
2022/12/22 14:11:15;;;;;;;9.50;4.37;;;;;;;9.37;100.00;99731.63;5072508;28;20810;-71
2022/12/22 14:13:43;;;;;;;10.30;4.73;;;;;;;9.35;100.00;99729.25;5073188;28;20552;-71
2022/12/22 14:16:13;;;;;;;11.03;4.20;;;;;;;9.36;100.00;99744.34;5073744;28;20437;-70
2022/12/22 14:18:42;;;;;;;10.60;4.40;;;;;;;9.37;100.00;99737.03;5072675;28;20543;-70
2022/12/22 14:21:10;;;;;;;10.90;4.70;;;;;;;9.31;100.00;99734.47;5073250;28;20460;-70
2022/12/22 14:23:40;;;;;;;11.87;4.83;;;;;;;9.31;100.00;99748.00;5072452;28;20509;-70
2022/12/22 14:26:13;;;;;;;10.00;4.03;;;;;;;9.28;100.00;99753.22;5073171;28;20465;-70
2022/12/22 14:28:49;;;;;;;13.30;4.77;;;;;;;9.30;100.00;99759.13;5072177;28;20465;-69
2022/12/22 14:31:17;;;;;;;10.73;4.40;;;;;;;9.27;100.00;99760.53;5072532;28;20429;-70
2022/12/22 14:33:53;;;;;;;9.23;4.83;;;;;;;9.31;100.00;99755.31;5072618;28;20557;-70
2022/12/22 14:36:23;;;;;;;7.80;3.60;;;;;;;9.22;100.00;99766.09;5071182;28;20452;-71
2022/12/22 14:38:52;;;;;;;8.77;3.90;;;;;;;9.26;100.00;99769.75;5071079;28;21036;-71
2022/12/22 14:41:41;;;;;;;8.50;3.80;;;;;;;9.22;100.00;99771.50;5072021;28;20991;-70
2022/12/22 14:44:14;;;;;;;10.27;4.30;;;;;;;9.25;100.00;99778.97;5073302;28;20433;-69
2022/12/22 14:46:40;;;;;;;6.80;2.73;;;;;;;9.19;100.00;99779.41;5073248;28;20550;-72
2022/12/22 14:49:14;;;;;;;7.97;4.00;;;;;;;9.14;100.00;99785.75;5072796;28;20837;-71
2022/12/22 14:51:41;;;;;;;9.27;3.77;;;;;;;9.20;100.00;99781.78;5072807;28;20430;-71
2022/12/22 14:54:19;;;;;;;9.10;3.73;;;;;;;9.21;100.00;99786.13;5072945;28;20453;-71
2022/12/22 14:56:48;;;;;;;8.93;3.73;;;;;;;9.20;100.00;99779.09;5072721;28;20865;-71
2022/12/22 14:59:24;;;;;;;14.03;4.23;;;;;;;9.23;100.00;99792.00;5072885;28;20532;-71
2022/12/22 15:02:00;;;;;;;11.00;5.23;;;;;;;9.23;100.00;99796.59;5072921;28;20555;-70
2022/12/22 15:04:29;;;;;;;11.13;3.97;;;;;;;9.13;100.00;99797.69;5072749;28;20499;-70
2022/12/22 15:07:06;;;;;;;8.53;3.77;;;;;;;9.17;100.00;99806.75;5072846;28;20437;-71
2022/12/22 15:09:33;;;;;;;10.40;4.20;;;;;;;9.19;100.00;99804.53;5072972;28;20489;-70
2022/12/22 15:12:07;;;;;;;13.30;5.10;;;;;;;9.16;100.00;99807.03;5072771;28;20462;-70
2022/12/22 15:14:36;;;;;;;10.40;4.63;;;;;;;9.18;100.00;99813.75;5072839;28;20479;-70
2022/12/22 15:17:03;;;;;;;11.83;4.30;;;;;;;9.20;100.00;99825.03;5072751;28;20852;-71